createdAt,value
2023-08-14T00:01:06.313Z,22.00
2023-08-14T00:06:11.614Z,19.75
2023-08-14T00:11:16.359Z,18.00
2023-08-14T00:16:21.163Z,19.00
2023-08-14T00:21:26.392Z,18.25
2023-08-14T00:26:31.405Z,17.75
2023-08-14T00:31:36.716Z,21.25
2023-08-14T00:36:41.755Z,20.50
2023-08-14T00:41:46.492Z,22.75
2023-08-14T00:46:51.662Z,20.50
2023-08-14T00:51:56.500Z,20.00
2023-08-14T00:57:02.374Z,23.75
2023-08-14T01:02:07.162Z,27.75
2023-08-14T01:07:12.328Z,28.00
2023-08-14T01:12:28.348Z,30.25
2023-08-14T01:17:34.832Z,27.75
2023-08-14T01:22:48.577Z,29.25
2023-08-14T01:27:54.781Z,30.00
2023-08-14T01:33:01.211Z,29.75
2023-08-14T01:38:10.599Z,31.50
2023-08-14T01:43:17.735Z,31.50
2023-08-14T01:48:24.656Z,28.50
2023-08-14T01:53:29.804Z,30.25
2023-08-14T01:58:34.431Z,28.25
2023-08-14T02:03:40.427Z,31.00
2023-08-14T02:08:44.865Z,28.25
2023-08-14T02:13:49.293Z,29.75
2023-08-14T02:18:54.194Z,26.75
2023-08-14T02:23:58.807Z,30.00
2023-08-14T02:29:03.701Z,27.00
2023-08-14T02:34:08.791Z,24.00
2023-08-14T02:39:13.155Z,20.75
2023-08-14T02:44:18.787Z,21.00
2023-08-14T02:49:23.228Z,23.25
2023-08-14T02:54:27.832Z,22.50
2023-08-14T02:59:32.402Z,25.25
2023-08-14T03:04:36.835Z,22.25
2023-08-14T03:09:42.288Z,22.50
2023-08-14T03:14:46.748Z,28.00
2023-08-14T03:19:51.884Z,23.00
2023-08-14T03:24:56.465Z,22.50
2023-08-14T03:30:00.732Z,20.50
2023-08-14T03:35:05.220Z,21.25
2023-08-14T03:40:11.118Z,19.00
2023-08-14T03:45:16.398Z,23.50
2023-08-14T03:50:20.728Z,25.00
2023-08-14T03:55:26.075Z,27.25
2023-08-14T04:00:30.280Z,27.75
2023-08-14T04:05:38.254Z,23.00
2023-08-14T04:10:43.294Z,25.00
2023-08-14T04:15:47.668Z,23.75
2023-08-14T04:20:52.646Z,23.75
2023-08-14T04:25:57.028Z,27.25
2023-08-14T04:31:02.432Z,26.75
2023-08-14T04:36:07.764Z,25.00
2023-08-14T04:41:12.248Z,18.25
2023-08-14T04:46:32.173Z,21.00
2023-08-14T04:51:40.833Z,20.25
2023-08-14T04:56:45.190Z,18.00
2023-08-14T05:01:49.828Z,15.25
2023-08-14T05:06:56.998Z,14.25
2023-08-14T05:12:01.699Z,15.50
2023-08-14T05:17:05.988Z,14.25
2023-08-14T05:22:10.547Z,19.75
2023-08-14T05:27:14.914Z,14.75
2023-08-14T05:32:20.390Z,16.25
2023-08-14T05:37:24.774Z,20.25
2023-08-14T05:42:29.030Z,15.25
2023-08-14T05:47:34.222Z,16.75
2023-08-14T05:52:38.509Z,11.75
2023-08-14T05:57:43.220Z,16.50
2023-08-14T06:02:47.819Z,13.50
2023-08-14T06:07:53.824Z,10.50
2023-08-14T06:12:58.359Z,12.00
2023-08-14T06:18:04.282Z,12.50
2023-08-14T06:23:09.515Z,11.00
2023-08-14T06:28:13.901Z,10.25
2023-08-14T06:33:18.811Z,9.50
2023-08-14T06:38:23.204Z,9.25
2023-08-14T06:43:28.087Z,9.00
2023-08-14T06:48:32.893Z,13.00
2023-08-14T06:53:38.030Z,12.00
2023-08-14T06:58:42.436Z,12.50
2023-08-14T07:03:46.933Z,13.00
2023-08-14T07:08:51.944Z,10.75
2023-08-14T07:13:57.406Z,15.50
2023-08-14T07:19:01.560Z,12.50
2023-08-14T07:24:07.834Z,11.50
2023-08-14T07:29:12.349Z,11.50
2023-08-14T07:34:17.130Z,12.00
2023-08-14T07:39:21.575Z,12.50
2023-08-14T07:44:28.570Z,9.00
2023-08-14T07:49:36.070Z,10.00
2023-08-14T07:54:40.431Z,11.75
2023-08-14T07:59:45.138Z,9.25
2023-08-14T08:04:50.091Z,9.50
2023-08-14T08:09:54.703Z,12.25
2023-08-14T08:15:00.190Z,12.75
2023-08-14T08:20:06.366Z,9.00
2023-08-14T08:25:11.786Z,11.00
2023-08-14T08:30:16.047Z,19.00
2023-08-14T08:35:20.530Z,15.25
2023-08-14T08:40:25.427Z,14.25
2023-08-14T08:45:34.155Z,20.25
2023-08-14T08:50:39.818Z,16.25
2023-08-14T08:55:44.351Z,17.00
2023-08-14T09:00:48.597Z,14.00
2023-08-14T09:05:53.900Z,17.75
2023-08-14T09:10:59.126Z,14.25
2023-08-14T09:16:03.864Z,15.25
2023-08-14T09:21:08.152Z,17.75
2023-08-14T09:26:14.357Z,16.75
2023-08-14T09:31:20.469Z,13.50
2023-08-14T09:36:24.602Z,15.50
2023-08-14T09:41:29.590Z,14.25
2023-08-14T09:46:35.118Z,15.50
2023-08-14T09:51:42.333Z,19.75
2023-08-14T09:56:47.171Z,19.75
2023-08-14T10:01:52.535Z,20.75
2023-08-14T10:06:58.305Z,18.50
2023-08-14T10:12:07.274Z,16.75
2023-08-14T10:17:15.540Z,17.50
2023-08-14T10:22:21.014Z,16.00
2023-08-14T10:27:27.038Z,19.25
2023-08-14T10:32:34.190Z,16.50
2023-08-14T10:37:52.953Z,17.00
2023-08-14T10:43:08.298Z,15.00
2023-08-14T10:48:13.486Z,17.50
2023-08-14T10:53:19.513Z,14.75
2023-08-14T10:58:37.779Z,17.00
2023-08-14T11:04:00.147Z,15.00
2023-08-14T11:09:06.880Z,15.25
2023-08-14T11:14:12.388Z,17.75
2023-08-14T11:19:17.605Z,14.00
2023-08-14T11:24:22.632Z,15.75
2023-08-14T11:29:28.696Z,15.25
2023-08-14T11:34:36.391Z,14.00
2023-08-14T11:39:41.219Z,17.25
2023-08-14T11:44:45.861Z,15.50
2023-08-14T11:49:52.655Z,16.25
2023-08-14T11:55:01.228Z,17.75
2023-08-14T12:00:30.227Z,20.00
2023-08-14T12:05:37.412Z,15.75
2023-08-14T12:10:44.799Z,19.25
2023-08-14T12:15:53.330Z,22.00
2023-08-14T12:20:58.190Z,21.50
2023-08-14T12:26:03.782Z,21.00
2023-08-14T12:31:09.017Z,18.25
2023-08-14T12:36:14.191Z,17.75
2023-08-14T12:41:19.188Z,21.00
2023-08-14T12:46:25.129Z,17.75
2023-08-14T12:51:30.090Z,15.75
2023-08-14T12:56:35.036Z,15.50
2023-08-14T13:01:40.171Z,15.25
2023-08-14T13:06:45.079Z,14.25
2023-08-14T13:11:50.245Z,15.00
2023-08-14T13:16:58.155Z,13.50
2023-08-14T13:22:03.186Z,13.75
2023-08-14T13:27:09.575Z,12.75
2023-08-14T13:32:14.946Z,15.00
2023-08-14T13:37:19.952Z,12.50
2023-08-14T13:42:24.677Z,12.00
2023-08-14T13:47:33.939Z,11.25
2023-08-14T13:52:49.932Z,9.50
2023-08-14T13:57:56.905Z,11.00
2023-08-14T14:03:05.609Z,12.00
2023-08-14T14:08:11.012Z,10.75
2023-08-14T14:13:16.243Z,12.00
2023-08-14T14:18:21.056Z,11.00
2023-08-14T14:23:25.969Z,13.50
2023-08-14T14:28:31.106Z,12.00
2023-08-14T14:33:36.057Z,13.50
2023-08-14T14:38:41.117Z,11.00
2023-08-14T14:43:46.125Z,9.75
2023-08-14T14:48:51.692Z,11.00
2023-08-14T14:53:56.762Z,9.00
2023-08-14T14:59:04.470Z,11.75
2023-08-14T15:04:09.497Z,10.00
2023-08-14T15:09:14.905Z,9.00
2023-08-14T15:14:19.911Z,10.75
2023-08-14T15:19:25.079Z,7.25
2023-08-14T15:24:31.618Z,7.75
2023-08-14T15:29:36.698Z,8.50
2023-08-14T15:34:41.679Z,8.50
2023-08-14T15:39:46.915Z,8.75
2023-08-14T15:44:52.034Z,8.00
2023-08-14T15:49:57.193Z,7.00
2023-08-14T15:55:02.074Z,7.50
2023-08-14T16:00:09.245Z,9.75
2023-08-14T16:05:14.097Z,7.75
2023-08-14T16:10:20.379Z,5.75
2023-08-14T16:15:25.321Z,6.25
2023-08-14T16:20:30.441Z,9.50
2023-08-14T16:25:36.948Z,9.00
2023-08-14T16:30:41.920Z,9.50
2023-08-14T16:35:46.757Z,7.00
2023-08-14T16:40:52.051Z,5.50
2023-08-14T16:45:56.843Z,7.50
2023-08-14T16:51:03.018Z,5.50
2023-08-14T16:56:08.044Z,8.75
2023-08-14T17:01:13.440Z,7.00
2023-08-14T17:06:18.499Z,8.50
2023-08-14T17:11:25.047Z,8.50
2023-08-14T17:16:32.288Z,10.25
2023-08-14T17:21:37.559Z,6.25
2023-08-14T17:26:44.159Z,7.00
2023-08-14T17:31:49.623Z,8.00
2023-08-14T17:36:55.083Z,6.50
2023-08-14T17:42:00.083Z,6.25
2023-08-14T17:47:05.700Z,7.00
2023-08-14T17:52:10.443Z,5.00
2023-08-14T17:57:15.249Z,7.00
2023-08-14T18:02:20.189Z,8.25
2023-08-14T18:07:25.200Z,8.75
2023-08-14T18:12:30.077Z,8.00
2023-08-14T18:17:35.052Z,6.25
2023-08-14T18:22:39.937Z,10.25
2023-08-14T18:27:44.813Z,7.75
2023-08-14T18:32:49.687Z,8.75
2023-08-14T18:37:55.332Z,7.50
2023-08-14T18:43:00.522Z,9.75
2023-08-14T18:48:05.628Z,9.00
2023-08-14T18:53:10.506Z,11.00
2023-08-14T18:58:15.989Z,9.00
2023-08-14T19:03:21.246Z,6.25
2023-08-14T19:08:26.801Z,7.25
2023-08-14T19:13:31.590Z,7.50
2023-08-14T19:18:36.470Z,8.00
2023-08-14T19:23:41.338Z,5.25
2023-08-14T19:28:47.491Z,8.25
2023-08-14T19:33:52.673Z,6.00
2023-08-14T19:38:57.853Z,8.00
2023-08-14T19:44:06.420Z,8.50
2023-08-14T19:49:11.067Z,9.50
2023-08-14T19:54:15.833Z,8.75
2023-08-14T19:59:20.647Z,7.75
2023-08-14T20:04:25.620Z,8.00
2023-08-14T20:09:30.455Z,7.00
2023-08-14T20:14:35.384Z,7.25
2023-08-14T20:19:40.539Z,9.25
2023-08-14T20:24:45.348Z,6.00
2023-08-14T20:29:50.246Z,10.75
2023-08-14T20:34:54.932Z,8.00
2023-08-14T20:39:59.470Z,8.75
2023-08-14T20:45:04.556Z,7.50
2023-08-14T20:50:09.643Z,8.00
2023-08-14T20:55:14.465Z,9.25
2023-08-14T21:00:19.559Z,8.00
2023-08-14T21:05:26.002Z,9.50
2023-08-14T21:10:30.962Z,7.75
2023-08-14T21:15:36.042Z,7.50
2023-08-14T21:20:44.666Z,6.25
2023-08-14T21:25:49.348Z,7.00
2023-08-14T21:31:01.345Z,9.00
2023-08-14T21:36:07.461Z,7.75
2023-08-14T21:41:12.709Z,6.25
2023-08-14T21:46:17.616Z,7.00
2023-08-14T21:51:22.421Z,8.50
2023-08-14T21:56:27.585Z,9.50
2023-08-14T22:01:32.728Z,8.00
2023-08-14T22:06:37.986Z,6.50
2023-08-14T22:11:42.793Z,8.00
2023-08-14T22:16:47.500Z,8.00
2023-08-14T22:21:52.203Z,10.25
2023-08-14T22:26:56.841Z,8.25
2023-08-14T22:32:01.656Z,8.00
2023-08-14T22:37:06.394Z,7.00
2023-08-14T22:42:11.419Z,8.75
2023-08-14T22:47:16.404Z,9.00
2023-08-14T22:52:21.227Z,9.75
2023-08-14T22:57:25.992Z,12.75
2023-08-14T23:02:30.979Z,19.75
2023-08-14T23:07:36.035Z,28.25
2023-08-14T23:12:41.059Z,24.25
2023-08-14T23:17:46.073Z,28.50
2023-08-14T23:22:50.791Z,30.75
2023-08-14T23:27:55.557Z,26.50
2023-08-14T23:33:00.372Z,29.75
2023-08-14T23:38:06.117Z,29.75
2023-08-14T23:43:11.476Z,31.50
2023-08-14T23:48:16.293Z,32.00
2023-08-14T23:53:21.117Z,30.00
2023-08-14T23:58:26.023Z,31.00
